Latest Weather Observations for Wyndham Airport

IDD60801

Issued at 8:31 am CST Sunday 31 May 2015 (issued every 30 minutes, with the page automatically refreshed every 10 minutes)

About weather observations | Map of weather stations | Latest weather observations for NT | Other Formats
Station Details ID: 001006 Name: WYNDHAM AERO Lat: -15.51 Lon: 128.15 Height: 3.8 m
Data from the previous 72 hours. | See also: Recent months for locations in Northern Territory
Date/Time
CST
Temp
°C
App
Temp
°C
Dew
Point
Rel
Hum
%
Delta-T
°C
Wind Press
QNH
hPa
Press
MSL
hPa
Rain
since 9 am
mm
Dir
 
Spd
km/h
Gust
km/h
Spd
kts
Gust
kts
31/08:30am 24.9 25.6 15.5 56 5.7 WNW 6 7 3 4 1012.6 1012.6 0.0
31/08:00am 24.1 25.9 15.6 59 5.1 CALM 0 7 0 4 1012.3 1012.3 0.0
31/07:30am 24.1 24.7 15.9 60 5.0 ESE 7 9 4 5 1012.1 1012.1 0.0
31/07:00am 23.4 23.1 15.5 61 4.7 SSE 11 13 6 7 1012.0 1012.0 0.0
31/06:30am 23.6 24.2 15.4 60 4.9 ENE 6 9 3 5 1011.9 1011.9 0.0
31/06:00am 23.1 23.6 14.9 60 4.9 NNW 6 7 3 4 1011.5 1011.5 0.0
31/05:30am 23.5 25.1 14.8 58 5.2 CALM 0 6 0 3 1011.3 1011.3 0.0
31/05:00am 23.5 23.1 15.3 60 4.9 SSW 11 13 6 7 1011.2 1011.2 0.0
31/04:30am 23.3 24.8 14.6 58 5.1 CALM 0 0 0 0 1011.1 1011.1 0.0
31/04:00am 22.8 24.3 14.6 60 4.8 CALM 0 0 0 0 1011.2 1011.2 0.0
31/03:30am 23.3 24.9 14.8 59 5.0 CALM 0 0 0 0 1011.3 1011.3 0.0
31/03:00am 23.7 25.4 15.2 59 5.1 CALM 0 0 0 0 1011.3 1011.3 0.0
31/02:30am 23.6 25.2 14.9 58 5.2 CALM 0 7 0 4 1011.4 1011.4 0.0
31/02:00am 24.3 24.2 15.0 56 5.6 SE 9 11 5 6 1011.7 1011.7 0.0
31/01:30am 25.3 25.3 16.2 57 5.6 E 11 13 6 7 1011.9 1011.9 0.0
31/01:00am 25.1 25.4 16.0 57 5.5 ENE 9 11 5 6 1012.1 1012.1 0.0
31/12:30am 25.4 24.8 15.7 55 5.9 ESE 13 17 7 9 1012.3 1012.3 0.0
31/12:00am 25.4 24.6 16.0 56 5.7 ENE 15 20 8 11 1012.6 1012.6 0.0
 
Date/Time
CST
Temp
°C
App
Temp
°C
Dew
Point
Rel
Hum
%
Delta-T
°C
Wind Press
QNH
hPa
Press
MSL
hPa
Rain
since 9 am
mm
Dir
 
Spd
km/h
Gust
km/h
Spd
kts
Gust
kts
30/11:30pm 26.1 24.3 15.5 52 6.4 ESE 19 24 10 13 1012.7 1012.7 0.0
30/11:00pm 25.8 24.7 15.2 52 6.4 ESE 15 17 8 9 1012.7 1012.7 0.0
30/10:30pm 25.9 24.7 15.0 51 6.6 E 15 17 8 9 1012.7 1012.7 0.0
30/10:00pm 26.4 26.4 15.1 49 6.8 ENE 9 11 5 6 1012.8 1012.8 0.0
30/09:30pm 27.2 27.4 14.2 44 7.8 ESE 6 9 3 5 1012.7 1012.7 0.0
30/09:00pm 27.8 27.8 14.1 43 8.2 ESE 7 9 4 5 1012.2 1012.2 0.0
30/08:30pm 27.7 28.5 12.5 39 8.9 CALM 0 0 0 0 1011.8 1011.8 0.0
30/08:00pm 29.9 29.6 13.2 36 9.9 N 7 11 4 6 1011.6 1011.6 0.0
30/07:30pm 30.9 30.1 14.1 36 10.2 N 11 15 6 8 1011.2 1011.2 0.0
30/07:00pm 31.8 30.4 14.4 34 10.6 N 15 19 8 10 1011.0 1011.0 0.0
30/06:30pm 32.4 30.9 14.1 33 11.1 N 15 20 8 11 1010.6 1010.6 0.0
30/06:00pm 33.4 31.1 14.0 31 11.8 NNW 19 24 10 13 1010.2 1010.2 0.0
30/05:30pm 34.3 32.6 13.7 29 12.6 NNW 15 24 8 13 1009.7 1009.7 0.0
30/05:00pm 35.5 33.0 9.8 21 14.8 E 13 20 7 11 1009.5 1009.5 0.0
30/04:30pm 36.0 33.8 9.5 20 15.3 NE 11 19 6 10 1009.6 1009.6 0.0
30/04:00pm 36.4 32.6 9.8 20 15.4 ENE 20 28 11 15 1009.7 1009.7 0.0
30/03:30pm 36.5 33.3 9.9 20 15.5 NE 17 24 9 13 1009.8 1009.8 0.0
30/03:00pm 36.3 33.2 9.0 19 15.6 ENE 15 24 8 13 1010.1 1010.1 0.0
30/02:30pm 36.6 33.8 10.0 20 15.5 ESE 15 20 8 11 1010.5 1010.5 0.0
30/02:00pm 36.2 34.7 10.4 21 15.1 NE 9 15 5 8 1011.0 1011.0 0.0
30/01:30pm 35.6 33.2 11.3 23 14.4 ESE 15 28 8 15 1011.5 1011.5 0.0
30/01:00pm 35.9 34.7 11.5 23 14.5 ESE 9 20 5 11 1011.8 1011.8 0.0
30/12:30pm 35.2 35.1 13.4 27 13.3 ENE 6 13 3 7 1012.4 1012.4 0.0
30/12:00pm 34.4 33.7 13.3 28 12.8 WSW 9 15 5 8 1012.9 1012.9 0.0
30/11:30am 32.4 32.0 13.1 31 11.6 WSW 7 13 4 7 1013.4 1013.4 0.0
30/11:00am 31.5 31.4 13.3 33 10.9 W 6 9 3 5 1014.1 1014.1 0.0
30/10:30am 30.5 30.3 13.7 35 10.1 WNW 7 11 4 6 1014.5 1014.5 0.0
30/10:00am 28.5 28.4 14.0 41 8.7 WSW 7 11 4 6 1014.8 1014.8 0.0
30/09:30am 27.6 27.8 14.6 45 7.8 WSW 7 11 4 6 1014.9 1014.9 0.0
30/09:00am 26.7 26.8 14.5 47 7.3 SW 7 11 4 6 1014.8 1014.8 0.0
30/08:30am 25.6 25.9 14.4 50 6.7 WNW 6 7 3 4 1014.5 1014.5 0.0
30/08:00am 23.6 25.2 14.9 58 5.2 CALM 0 0 0 0 1014.2 1014.2 0.0
30/07:30am 22.2 22.9 14.6 62 4.5 N 4 7 2 4 1014.0 1014.0 0.0
30/07:00am 22.1 22.5 13.7 59 4.9 SSW 4 6 2 3 1013.7 1013.7 0.0
30/06:30am 22.0 21.6 13.1 57 5.1 W 7 9 4 5 1013.3 1013.3 0.0
30/06:00am 22.8 24.1 14.1 58 5.1 CALM 0 0 0 0 1013.0 1013.0 0.0
30/05:30am 22.9 22.7 13.7 56 5.4 WSW 7 11 4 6 1013.0 1013.0 0.0
30/05:00am 23.0 22.1 13.8 56 5.4 W 11 11 6 6 1012.8 1012.8 0.0
30/04:30am 22.7 22.0 14.3 59 4.9 NW 11 13 6 7 1012.9 1012.9 0.0
30/04:00am 22.3 21.7 13.6 58 5.0 WNW 9 11 5 6 1013.1 1013.1 0.0
30/03:30am 22.0 23.2 13.9 60 4.7 CALM 0 0 0 0 1013.3 1013.3 0.0
30/03:00am 22.2 23.3 13.5 57 5.0 CALM 0 0 0 0 1013.2 1013.2 0.0
30/02:30am 22.5 23.2 12.2 52 5.8 CALM 0 0 0 0 1013.3 1013.3 0.0
30/02:00am 22.8 23.7 13.0 54 5.6 CALM 0 0 0 0 1013.4 1013.4 0.0
30/01:30am 22.3 21.4 11.4 50 6.1 WNW 7 7 4 4 1013.5 1013.5 0.0
30/01:00am 22.9 22.4 12.8 53 5.8 NNW 7 7 4 4 1013.5 1013.5 0.0
30/12:30am 23.3 24.3 13.2 53 5.8 CALM 0 0 0 0 1013.8 1013.8 0.0
30/12:00am 23.8 24.2 12.4 48 6.5 WSW 2 7 1 4 1013.9 1013.9 0.0
 
Date/Time
CST
Temp
°C
App
Temp
°C
Dew
Point
Rel
Hum
%
Delta-T
°C
Wind Press
QNH
hPa
Press
MSL
hPa
Rain
since 9 am
mm
Dir
 
Spd
km/h
Gust
km/h
Spd
kts
Gust
kts
29/11:30pm 24.0 23.9 12.0 47 6.8 ESE 4 7 2 4 1013.9 1013.9 0.0
29/11:00pm 25.1 25.0 13.3 48 6.9 NE 6 7 3 4 1014.1 1014.1 0.0
29/10:30pm 25.6 24.6 13.5 47 7.1 E 11 11 6 6 1014.3 1014.3 0.0
29/10:00pm 26.6 25.9 11.5 39 8.6 S 6 13 3 7 1014.2 1014.2 0.0
29/09:30pm 29.1 28.6 12.5 36 9.7 NNW 7 9 4 5 1014.1 1014.1 0.0
29/09:00pm 28.6 29.3 12.1 36 9.6 CALM 0 7 0 4 1013.9 1013.9 0.0
29/08:30pm 29.7 28.0 12.6 35 10.1 N 13 15 7 8 1013.5 1013.5 0.0
29/08:00pm 29.9 27.9 12.8 35 10.1 N 15 17 8 9 1013.2 1013.2 0.0
29/07:30pm 30.1 28.7 13.4 36 10.0 NNW 13 19 7 10 1012.8 1012.8 0.0
29/07:00pm 30.9 28.3 13.2 34 10.6 N 19 26 10 14 1012.4 1012.4 0.0
29/06:30pm 31.3 29.3 14.0 35 10.5 NNW 17 22 9 12 1012.1 1012.1 0.0
29/06:00pm 32.4 29.7 14.5 33 11.0 NNW 22 28 12 15 1011.6 1011.6 0.0
29/05:30pm 33.7 31.2 14.2 30 12.0 N 20 28 11 15 1011.3 1011.3 0.0
29/05:00pm 34.7 32.7 14.0 28 12.7 N 17 26 9 14 1011.1 1011.1 0.0
29/04:30pm 35.6 35.2 13.1 25 13.7 NNE 7 20 4 11 1011.1 1011.1 0.0
29/04:00pm 35.9 32.6 10.9 22 14.7 ENE 19 28 10 15 1011.1 1011.1 0.0
29/03:30pm 36.2 33.7 11.1 22 14.8 NE 15 28 8 15 1011.2 1011.2 0.0
29/03:00pm 36.1 33.2 11.0 22 14.8 ESE 17 30 9 16 1011.4 1011.4 0.0
29/02:30pm 36.1 34.2 11.7 23 14.5 NE 13 22 7 12 1011.8 1011.8 0.0
29/02:00pm 35.8 33.0 11.4 23 14.5 E 17 28 9 15 1012.3 1012.3 0.0
29/01:30pm 35.5 33.4 12.5 25 13.8 NE 15 28 8 15 1012.8 1012.8 0.0
29/01:00pm 35.0 32.6 12.6 26 13.5 ENE 17 24 9 13 1013.4 1013.4 0.0
29/12:30pm 35.4 32.7 13.0 26 13.6 E 19 24 10 13 1014.0 1014.0 0.0
29/12:00pm 33.8 31.0 12.7 27 12.6 NE 19 32 10 17 1014.5 1014.5 0.0
29/11:30am 33.2 31.0 13.3 30 12.0 ENE 17 28 9 15 1015.0 1015.0 0.0
29/11:00am 33.0 30.7 13.1 30 12.0 ENE 17 24 9 13 1015.3 1015.3 0.0
29/10:30am 31.2 31.0 14.8 37 10.0 SSW 9 13 5 7 1015.4 1015.4 0.0
29/10:00am 28.9 29.3 15.4 44 8.3 SW 7 9 4 5 1015.4 1015.4 0.0
29/09:30am 27.4 28.0 15.4 48 7.3 W 6 7 3 4 1015.1 1015.1 0.0
29/09:00am 25.5 26.0 14.9 52 6.4 W 6 7 3 4 1014.8 1014.8 0.0
29/08:30am 24.0 25.4 14.4 55 5.7 CALM 0 0 0 0 1014.5 1014.5 0.0
29/08:00am 21.6 22.7 13.5 60 4.7 CALM 0 6 0 3 1014.2 1014.2 0.0
29/07:30am 20.6 22.0 14.3 67 3.7 CALM 0 0 0 0 1013.6 1013.6 0.0
29/07:00am 20.8 22.1 14.2 66 3.8 CALM 0 0 0 0 1013.2 1013.2 0.0
29/06:30am 21.0 22.3 14.2 65 4.0 CALM 0 0 0 0 1013.0 1013.0 0.0
29/06:00am 21.8 23.1 14.2 62 4.4 CALM 0 0 0 0 1012.9 1012.9 0.0
29/05:30am 22.4 22.6 14.3 60 4.7 NW 6 7 3 4 1012.7 1012.7 0.0
29/05:00am 22.3 23.1 14.9 63 4.4 NW 4 6 2 3 1012.6 1012.6 0.0
29/04:30am 22.3 22.5 14.7 62 4.5 W 7 7 4 4 1012.6 1012.6 0.0
29/04:00am 22.6 23.0 14.7 61 4.7 WSW 6 6 3 3 1012.7 1012.7 0.0
29/03:30am 22.4 23.8 14.5 61 4.6 CALM 0 0 0 0 1012.7 1012.7 0.0
29/03:00am 22.4 23.1 13.5 57 5.1 SSW 2 7 1 4 1012.7 1012.7 0.0
29/02:30am 22.9 23.6 13.4 55 5.5 ENE 2 6 1 3 1012.8 1012.8 0.0
29/02:00am 23.8 23.6 14.8 57 5.4 ENE 9 9 5 5 1013.0 1013.0 0.0
29/01:30am 23.4 22.1 13.8 54 5.6 ESE 13 13 7 7 1013.2 1013.2 0.0
29/01:00am 24.0 22.7 13.8 53 6.0 ESE 13 15 7 8 1013.4 1013.4 0.0
29/12:30am 23.3 22.7 13.5 54 5.7 ESE 9 11 5 6 1013.6 1013.6 0.0
29/12:00am 23.9 24.8 12.8 49 6.4 CALM 0 0 0 0 1013.5 1013.5 0.0
 
Date/Time
CST
Temp
°C
App
Temp
°C
Dew
Point
Rel
Hum
%
Delta-T
°C
Wind Press
QNH
hPa
Press
MSL
hPa
Rain
since 9 am
mm
Dir
 
Spd
km/h
Gust
km/h
Spd
kts
Gust
kts
28/11:30pm 25.5 26.9 14.3 50 6.7 CALM 0 0 0 0 1013.7 1013.7 0.0
28/11:00pm 25.6 26.7 13.5 47 7.1 CALM 0 0 0 0 1013.8 1013.8 0.0
28/10:30pm 26.6 26.1 13.7 45 7.6 SSW 9 11 5 6 1013.8 1013.8 0.0
28/10:00pm 27.5 26.9 14.5 45 7.8 S 11 15 6 8 1013.8 1013.8 0.0
28/09:30pm 28.3 27.3 13.4 40 8.8 SSW 11 15 6 8 1013.5 1013.5 0.0
28/09:00pm 29.4 29.6 13.2 37 9.6 WSW 4 7 2 4 1013.1 1013.1 0.0
28/08:30pm 29.8 29.8 13.5 36 9.7 N 6 11 3 6 1012.8 1012.8 0.0
28/08:00pm 30.7 28.8 14.3 36 9.9 N 17 22 9 12 1012.4 1012.4 0.0
28/07:30pm 30.5 29.7 15.0 39 9.5 N 13 17 7 9 1012.0 1012.0 0.0
28/07:00pm 31.0 29.0 15.0 38 9.8 N 19 24 10 13 1011.7 1011.7 0.0
28/06:30pm 31.7 30.0 14.8 36 10.4 N 17 24 9 13 1011.3 1011.3 0.0
28/06:00pm 32.8 30.2 14.9 34 11.0 N 22 28 12 15 1011.0 1011.0 0.0
28/05:30pm 34.2 32.1 14.7 31 12.1 NNW 19 28 10 15 1010.7 1010.7 0.0
28/05:00pm 35.7 33.9 12.0 24 14.2 ENE 13 20 7 11 1010.5 1010.5 0.0
28/04:30pm 35.8 34.4 12.1 24 14.2 E 11 19 6 10 1010.4 1010.4 0.0
28/04:00pm 36.6 35.7 12.7 23 14.5 ENE 9 22 5 12 1010.3 1010.3 0.0
28/03:30pm 36.0 34.2 12.2 23 14.3 NE 13 20 7 11 1010.5 1010.5 0.0
28/03:00pm 35.7 33.1 12.0 24 14.2 NE 17 26 9 14 1010.6 1010.6 0.0
28/02:30pm 36.0 33.1 12.2 23 14.3 ENE 19 28 10 15 1011.0 1011.0 0.0
28/02:00pm 36.1 33.8 13.0 25 14.0 ENE 17 24 9 13 1011.4 1011.4 0.0
28/01:30pm 36.0 33.1 12.9 25 14.0 ENE 20 28 11 15 1012.0 1012.0 0.0
28/01:00pm 35.4 33.1 13.0 26 13.6 ENE 17 28 9 15 1012.5 1012.5 0.0
28/12:30pm 35.1 34.1 13.3 27 13.2 ENE 11 20 6 11 1013.0 1013.0 0.0
28/12:00pm 33.6 33.4 13.1 29 12.3 WSW 6 11 3 6 1013.4 1013.4 0.0
28/11:30am 31.9 32.1 13.2 32 11.2 W 4 7 2 4 1013.6 1013.6 0.0
28/11:00am 30.5 30.2 13.3 35 10.3 SW 7 13 4 7 1014.1 1014.1 0.0
28/10:30am 29.1 28.4 13.3 37 9.4 WSW 9 15 5 8 1014.3 1014.3 0.0

Other Formats:

Comma delimited format used in spreadsheet applications
http://www.bom.gov.au/fwo/IDD60801/IDD60801.95214.axf

JavaScript Object Notation format (JSON) in row-major order
http://www.bom.gov.au/fwo/IDD60801/IDD60801.95214.json